Terminal Aerodrome Forecast
Issued by NWS

Home | Current Version | Previous Version | Text Only | Print | Product List | Glossary Off
Versions: 1 2 3 4 5 6 7 8 9 10 11 12 13 14 15 16 17 18 19 20 21 22 23

000
FTUS41 KCLE 270534
TAFFDY
TAF
KFDY 270534Z 2706/2806 09005KT 3SM -RA SCT015 OVC040
     FM270700 06008KT 5SM -RA BR SCT008 OVC020
      TEMPO 2709/2713 3SM BR OVC008
     FM271700 06010KT P6SM SCT015 OVC030
     FM271900 06007KT P6SM BKN045
     FM280000 09006KT P6SM SCT035 BKN100=

USA.gov is the U.S. government's official web portal to all federal, state and local government web resources and services.